Rothville, MO

2:35 AM CDT on July 11, 2014 (GMT -0500)
Barlow Back Yard (KMOHALE2) Elev 755 ft | 39.59 °N, 93.30 °W | Change Station

Current weather conditions updated 2 minutes ago

Clear
Clear
65.3 °F
Feels Like 65.3 °F
N
2.7
Wind Variable Wind from SE

Today is forecast to be Warmer than yesterday.

Today
High -- | Low -- °F
--% Chance of Precip.
Yesterday
High -- | Low -- °F
Precip. -- in
5:54 AM 8:41 PM
Waxing Gibbous, 98% visible
Pressure 30.12 in
Visibility 10.0 miles
Clouds Clear
Dew Point 61 °F
Humidity 87%
Rainfall 0.00 in
Snow Depth Not available.
UV 0 out of 12
Pollen 3.50 out of 12
Air Quality Not available.
Flu Activity Sporadic
METAR KIRK 110655Z AUTO 13007KT 10SM CLR 18/15 A3013 RMK AO2 SLP200 T01780150

More Conditions Fewer Conditions

Pressure 30.12 in
Visibility 10.0 miles
Clouds Clear
Dew Point 61 °F
Humidity 87%
Rainfall 0.00 in
Snow Depth Not available.
UV 0 out of 12
Pollen 3.50 out of 12
Air Quality Not available.
Flu Activity Sporadic
METAR KIRK 110655Z AUTO 13007KT 10SM CLR 18/15 A3013 RMK AO2 SLP200 T01780150

More Conditions Fewer Conditions

10-Day Weather Forecast

Almanac

Astronomy

Jul. 11, 2014 Rise Set
Actual Time 5:54 AM CDT 8:41 PM CDT
Civil Twilight 5:22 AM CDT 9:12 PM CDT
Nautical Twilight 4:42 AM CDT 9:52 PM CDT
Astronomical Twilight 3:56 AM CDT 10:38 PM CDT
Moon 7:52 PM CDT 5:06 AM CDT
Length of Visible Light 15h 50m
Length of Day
14h 46m
Tomorrow will be 1m 10s shorter.
Waxing Gibbous, 98% of the Moon is Illuminated
Today
Waxing Gibbous
Jul 12
Full
Jul 18
Last Quarter
Jul 26
New
Aug 3
First Quarter

Today's Extremes

State Highs State Lows

Community

WunderPhotos

Upload Photos

1,732,407 photos uploaded!

Nearby

Snow Depth

Station Depth Elevation
No new snow has been reported.

Earthquake Activity

City Distance Mag. Time & Date
No recent earthquake activity has been reported nearby.
Minimum magnitude displayed is 2.5.

Coastal Water Temperatures

Place Temperature
No Stations Reporting

Nearby Weather Stations

Station Location Temp. Dew Point Humidity Wind Precip. Elev Updated Type
Barlow Back Yard, Hale, MO 65.3 °F 61 °F 87% SE  at  2.7 mph - / hr 755 ft 2:33 AM CDT Normal
ENGLERT - KMOHALE3, Hale, MO 63.1 °F 62 °F 97% NW  at  0.0 mph 0.00 in / hr 764 ft 2:35 AM CDT Rapid Fire
RAWS CHILLICOTHE MO, Chillicothe, MO 66 °F 60 °F 82% ESE  at  5 mph 0.00 in / hr 779 ft 1:13 AM CDT MADIS

Show More Stations Show Fewer Stations